Aérodrome :
LOGIN :

S'inscrire | Disclaimer

   EN    FR    IT 

 










Légende :    VFR   VFR Marginal   IFR   IFR Intensif   IFR Très Intensif
Visi : 
Plafond : 
>= 8 km
>= 3000ft
5 à 8 km
1000 à 3000 ft
1500m à 5 km
500 à 1000 ft
800 à 1500m
200 à 500 ft
< 800m
< 200 ft
Symboles :   Orages  Brouillard  Fortes neiges  Fortes précipitations  Vent > 20 kt
SIGMETs :   Divers  Orages  Givrage  Turbulence  Onde Orograph.  Cendres Volcan.







- Altitude de l'aérodrome : 26 ft
- Code IATA : BIA
- Voir les cartes d'approche


LFKB - Bastia

DERNIER METAR :
  • 222000Z AUTO 04011KT 010V070 9999 -RA BKN029 BKN040 BKN052 08/05 Q1002 TEMPO RA FEW010TCU BKN015

METARs EXPIRÉS :
  • 221930Z AUTO 35006KT 290V030 9999 -RA BKN028/// OVC035/// ///TCU 08/06 Q1002 TEMPO RA
  • 221900Z AUTO 32007KT 9999 SCT026 BKN032 BKN040 07/06 Q1002 TEMPO RA FEW010TCU BKN015 BECMG 04010KT
  • 221830Z AUTO VRB02KT 9999 FEW018 SCT028 BKN034 07/06 Q1002 TEMPO RA FEW010TCU BKN015
  • 221800Z AUTO 31007KT 9999 -RA FEW020/// SCT025/// BKN032/// ///TCU 07/05 Q1002 TEMPO RA BECMG 04010KT
  • 221730Z AUTO 34009KT 310V010 7000 -RA FEW024/// BKN030/// BKN036/// ///TCU 07/05 Q1002 TEMPO RA

TAF TAF LFKB
Valide du 22 à 21h jusqu'au 23 à 21h UTC


222000Z 2221/2321 34010KT 9999 BKN025
TEMPO 2221/2302 4000 RA FEW010TCU BKN014
BECMG 2303/2305 NSW FEW040 TX11/2312Z TN05/2304Z
ATIS : +33 4 95 59 19 40
Pas de NOTAMs connus pour ce terrain.



MET'MAP, la Météo Aéronautique d'un coup d'oeil ! - Copyright ORBIFLY Décembre 2007 - Disclaimer

ORBIFLY MET'MAP TEAM :

Programmation & Développement : Alexandra Zaïnal
Conception & Développement : Baudouin d'Aumeries
Co-Programmation & Développement : Marc-Olivier Méhu
Soutien technique & logistique : Manuel Goepfert

Contact : metmap@orbifly.com




SOURCES & CREDITS :

   NOAA